Pagrindinis puslapis
METAR-TAF:

METAR-TAF

Oro uostai :

Hargeisos tarptautinis oro uostas

Hargeisa, Somalis

platuma: 09-30N, ilguma: 044-05E, Aukštis: 1326 m

Dabartinis oras

Ataskaita buvo paskelbta 1 valandą ir 47 minutes, ne 12:00 UTC
Vėjas 3 kt iš Pietryčių
Temperatūra 28°C
Drėgmė 48%
Slėgis 1015 hPa
Matomumas 10 km arba daugiau
Su prošvaistėmis ne aukštis 2200 ft, aukštai iškilę kamuoliniai debesys.

METAR: HCMH 201200Z 14003KT 9999 BKN022TCU 28/16 Q1015

Laikas: 16:47 (13:47 UTC)


TAF: trūkstamas

Orai ataskaitas ir orų prognozės (METAR, TAF).

turimą stotys yra geltonos ir raudonos taškus žemėlapyje.

Perkelti pele per norėdami pamatyti stoties vardą.

Tada spustelėkite, norėdami matyti oro stebėjimo ir prognozės.

Norėdami pakeisti žemėlapį: spustelėkite ant žalios mygtukų su juodo kryžiaus žemyn,; žalią mygtuką su brūkšneliu, jei norite nutolinti; arba žalių rodyklių gretimoms žemėlapius.


METAR-TAF: